sensor_id;sensor_type;location;lat;lon;timestamp;P1;P2;P0
74419;PMS5003;62855;50.718;-2.460;2023-11-19T00:01:06;6.35;3.91;
74419;PMS5003;62855;50.718;-2.460;2023-11-19T00:04:06;6.35;4.89;
74419;PMS5003;62855;50.718;-2.460;2023-11-19T00:07:06;4.54;3.91;
74419;PMS5003;62855;50.718;-2.460;2023-11-19T00:10:07;6.35;4.89;
74419;PMS5003;62855;50.718;-2.460;2023-11-19T00:13:06;5.45;3.91;
74419;PMS5003;62855;50.718;-2.460;2023-11-19T00:16:07;6.35;4.89;
74419;PMS5003;62855;50.718;-2.460;2023-11-19T00:19:06;7.26;5.87;
74419;PMS5003;62855;50.718;-2.460;2023-11-19T00:22:05;6.35;5.87;
74419;PMS5003;62855;50.718;-2.460;2023-11-19T00:25:06;8.17;6.84;
74419;PMS5003;62855;50.718;-2.460;2023-11-19T00:28:06;8.17;5.87;
74419;PMS5003;62855;50.718;-2.460;2023-11-19T00:31:06;8.17;6.84;
74419;PMS5003;62855;50.718;-2.460;2023-11-19T00:34:05;7.26;5.87;
74419;PMS5003;62855;50.718;-2.460;2023-11-19T00:37:06;8.17;6.84;
74419;PMS5003;62855;50.718;-2.460;2023-11-19T00:40:06;7.26;5.87;
74419;PMS5003;62855;50.718;-2.460;2023-11-19T00:43:06;8.17;6.84;
74419;PMS5003;62855;50.718;-2.460;2023-11-19T00:46:06;7.26;5.87;
74419;PMS5003;62855;50.718;-2.460;2023-11-19T00:49:05;7.26;5.87;
74419;PMS5003;62855;50.718;-2.460;2023-11-19T00:52:05;6.35;5.87;
74419;PMS5003;62855;50.718;-2.460;2023-11-19T00:55:06;6.35;5.87;
74419;PMS5003;62855;50.718;-2.460;2023-11-19T00:58:05;5.45;5.87;
74419;PMS5003;62855;50.718;-2.460;2023-11-19T01:01:05;5.45;4.89;
74419;PMS5003;62855;50.718;-2.460;2023-11-19T01:04:06;5.45;4.89;
74419;PMS5003;62855;50.718;-2.460;2023-11-19T01:07:05;4.54;4.89;
74419;PMS5003;62855;50.718;-2.460;2023-11-19T01:10:06;5.45;4.89;
74419;PMS5003;62855;50.718;-2.460;2023-11-19T01:13:06;4.54;4.89;
74419;PMS5003;62855;50.718;-2.460;2023-11-19T01:16:06;4.54;4.89;
74419;PMS5003;62855;50.718;-2.460;2023-11-19T01:19:05;5.45;5.87;
74419;PMS5003;62855;50.718;-2.460;2023-11-19T01:22:05;5.45;5.87;
74419;PMS5003;62855;50.718;-2.460;2023-11-19T01:25:06;5.45;5.87;
74419;PMS5003;62855;50.718;-2.460;2023-11-19T01:28:05;5.45;5.87;
74419;PMS5003;62855;50.718;-2.460;2023-11-19T01:31:06;5.45;5.87;
74419;PMS5003;62855;50.718;-2.460;2023-11-19T01:34:05;8.17;5.87;
74419;PMS5003;62855;50.718;-2.460;2023-11-19T01:37:06;8.17;5.87;
74419;PMS5003;62855;50.718;-2.460;2023-11-19T01:40:06;8.17;5.87;
74419;PMS5003;62855;50.718;-2.460;2023-11-19T01:43:05;9.08;5.87;
74419;PMS5003;62855;50.718;-2.460;2023-11-19T01:46:06;9.08;5.87;
74419;PMS5003;62855;50.718;-2.460;2023-11-19T01:49:06;7.26;4.89;
74419;PMS5003;62855;50.718;-2.460;2023-11-19T01:52:06;8.17;4.89;
74419;PMS5003;62855;50.718;-2.460;2023-11-19T01:55:06;8.17;4.89;
74419;PMS5003;62855;50.718;-2.460;2023-11-19T01:58:06;7.26;4.89;
74419;PMS5003;62855;50.718;-2.460;2023-11-19T02:01:05;7.26;4.89;
74419;PMS5003;62855;50.718;-2.460;2023-11-19T02:04:06;4.54;3.91;
74419;PMS5003;62855;50.718;-2.460;2023-11-19T02:07:07;3.63;3.91;
74419;PMS5003;62855;50.718;-2.460;2023-11-19T02:10:06;3.63;3.91;
74419;PMS5003;62855;50.718;-2.460;2023-11-19T02:13:06;5.45;3.91;
74419;PMS5003;62855;50.718;-2.460;2023-11-19T02:16:06;7.26;5.87;
74419;PMS5003;62855;50.718;-2.460;2023-11-19T02:19:05;10.89;6.84;
74419;PMS5003;62855;50.718;-2.460;2023-11-19T02:22:06;12.71;7.82;
74419;PMS5003;62855;50.718;-2.460;2023-11-19T02:25:07;14.52;7.82;
74419;PMS5003;62855;50.718;-2.460;2023-11-19T02:28:05;10.89;5.87;
74419;PMS5003;62855;50.718;-2.460;2023-11-19T02:31:06;9.08;4.89;
74419;PMS5003;62855;50.718;-2.460;2023-11-19T02:34:06;8.17;4.89;
74419;PMS5003;62855;50.718;-2.460;2023-11-19T02:37:06;7.26;4.89;
74419;PMS5003;62855;50.718;-2.460;2023-11-19T02:40:06;7.26;4.89;
74419;PMS5003;62855;50.718;-2.460;2023-11-19T02:43:06;6.35;3.91;
74419;PMS5003;62855;50.718;-2.460;2023-11-19T02:46:06;6.35;3.91;
74419;PMS5003;62855;50.718;-2.460;2023-11-19T02:49:06;4.54;3.91;
74419;PMS5003;62855;50.718;-2.460;2023-11-19T02:52:06;4.54;3.91;
74419;PMS5003;62855;50.718;-2.460;2023-11-19T02:55:06;4.54;3.91;
74419;PMS5003;62855;50.718;-2.460;2023-11-19T02:58:05;3.63;3.91;
74419;PMS5003;62855;50.718;-2.460;2023-11-19T03:01:06;4.54;3.91;
74419;PMS5003;62855;50.718;-2.460;2023-11-19T03:04:06;4.54;3.91;
74419;PMS5003;62855;50.718;-2.460;2023-11-19T03:07:06;4.54;3.91;
74419;PMS5003;62855;50.718;-2.460;2023-11-19T03:10:06;5.45;4.89;
74419;PMS5003;62855;50.718;-2.460;2023-11-19T03:13:06;6.35;5.87;
74419;PMS5003;62855;50.718;-2.460;2023-11-19T03:16:06;7.26;5.87;
74419;PMS5003;62855;50.718;-2.460;2023-11-19T03:19:06;7.26;5.87;
74419;PMS5003;62855;50.718;-2.460;2023-11-19T03:22:06;7.26;5.87;
74419;PMS5003;62855;50.718;-2.460;2023-11-19T03:25:06;6.35;5.87;
74419;PMS5003;62855;50.718;-2.460;2023-11-19T03:28:06;8.17;5.87;
74419;PMS5003;62855;50.718;-2.460;2023-11-19T03:31:05;8.17;6.84;
74419;PMS5003;62855;50.718;-2.460;2023-11-19T03:34:06;8.17;6.84;
74419;PMS5003;62855;50.718;-2.460;2023-11-19T03:37:05;8.17;5.87;
74419;PMS5003;62855;50.718;-2.460;2023-11-19T03:40:05;7.26;5.87;
74419;PMS5003;62855;50.718;-2.460;2023-11-19T03:43:05;7.26;4.89;
74419;PMS5003;62855;50.718;-2.460;2023-11-19T03:49:06;6.35;5.87;
74419;PMS5003;62855;50.718;-2.460;2023-11-19T03:52:06;7.26;5.87;
74419;PMS5003;62855;50.718;-2.460;2023-11-19T03:55:06;7.26;5.87;
74419;PMS5003;62855;50.718;-2.460;2023-11-19T03:58:05;6.35;5.87;
74419;PMS5003;62855;50.718;-2.460;2023-11-19T04:01:05;5.45;4.89;
74419;PMS5003;62855;50.718;-2.460;2023-11-19T04:04:06;3.63;3.91;
74419;PMS5003;62855;50.718;-2.460;2023-11-19T04:07:05;6.35;4.89;
74419;PMS5003;62855;50.718;-2.460;2023-11-19T04:10:06;7.26;5.87;
74419;PMS5003;62855;50.718;-2.460;2023-11-19T04:13:06;7.26;5.87;
74419;PMS5003;62855;50.718;-2.460;2023-11-19T04:16:06;7.26;5.87;
74419;PMS5003;62855;50.718;-2.460;2023-11-19T04:19:06;7.26;5.87;
74419;PMS5003;62855;50.718;-2.460;2023-11-19T04:22:05;7.26;5.87;
74419;PMS5003;62855;50.718;-2.460;2023-11-19T04:25:06;7.26;4.89;
74419;PMS5003;62855;50.718;-2.460;2023-11-19T04:28:06;7.26;5.87;
74419;PMS5003;62855;50.718;-2.460;2023-11-19T04:31:06;7.26;4.89;
74419;PMS5003;62855;50.718;-2.460;2023-11-19T04:34:05;8.17;5.87;
74419;PMS5003;62855;50.718;-2.460;2023-11-19T04:37:06;6.35;6.84;
74419;PMS5003;62855;50.718;-2.460;2023-11-19T04:40:06;4.54;4.89;
74419;PMS5003;62855;50.718;-2.460;2023-11-19T04:43:06;5.45;5.87;
74419;PMS5003;62855;50.718;-2.460;2023-11-19T04:46:06;5.45;5.87;
74419;PMS5003;62855;50.718;-2.460;2023-11-19T04:49:06;6.35;5.87;
74419;PMS5003;62855;50.718;-2.460;2023-11-19T04:52:06;5.45;5.87;
74419;PMS5003;62855;50.718;-2.460;2023-11-19T04:55:06;6.35;6.84;
74419;PMS5003;62855;50.718;-2.460;2023-11-19T04:58:06;6.35;6.84;
74419;PMS5003;62855;50.718;-2.460;2023-11-19T05:02:15;7.26;6.84;
74419;PMS5003;62855;50.718;-2.460;2023-11-19T05:07:06;7.26;6.84;
74419;PMS5003;62855;50.718;-2.460;2023-11-19T05:10:06;7.26;6.84;
74419;PMS5003;62855;50.718;-2.460;2023-11-19T05:13:06;7.26;6.84;
74419;PMS5003;62855;50.718;-2.460;2023-11-19T05:16:06;6.35;5.87;
74419;PMS5003;62855;50.718;-2.460;2023-11-19T05:19:06;7.26;7.82;
74419;PMS5003;62855;50.718;-2.460;2023-11-19T05:22:06;8.17;6.84;
74419;PMS5003;62855;50.718;-2.460;2023-11-19T05:25:05;8.17;6.84;
74419;PMS5003;62855;50.718;-2.460;2023-11-19T05:28:06;8.17;6.84;
74419;PMS5003;62855;50.718;-2.460;2023-11-19T05:31:05;8.17;6.84;
74419;PMS5003;62855;50.718;-2.460;2023-11-19T05:34:05;6.35;5.87;
74419;PMS5003;62855;50.718;-2.460;2023-11-19T05:37:05;7.26;6.84;
74419;PMS5003;62855;50.718;-2.460;2023-11-19T05:40:06;7.26;6.84;
74419;PMS5003;62855;50.718;-2.460;2023-11-19T05:43:06;7.26;6.84;
74419;PMS5003;62855;50.718;-2.460;2023-11-19T05:46:05;5.45;5.87;
74419;PMS5003;62855;50.718;-2.460;2023-11-19T05:49:06;6.35;6.84;
74419;PMS5003;62855;50.718;-2.460;2023-11-19T05:52:06;5.45;5.87;
74419;PMS5003;62855;50.718;-2.460;2023-11-19T05:55:05;5.45;5.87;
74419;PMS5003;62855;50.718;-2.460;2023-11-19T05:58:06;5.45;5.87;
74419;PMS5003;62855;50.718;-2.460;2023-11-19T06:01:06;4.54;4.89;
74419;PMS5003;62855;50.718;-2.460;2023-11-19T06:04:06;5.45;5.87;
74419;PMS5003;62855;50.718;-2.460;2023-11-19T06:07:05;5.45;5.87;
74419;PMS5003;62855;50.718;-2.460;2023-11-19T06:10:06;6.35;4.89;
74419;PMS5003;62855;50.718;-2.460;2023-11-19T06:13:06;7.26;4.89;
74419;PMS5003;62855;50.718;-2.460;2023-11-19T06:16:06;7.26;5.87;
74419;PMS5003;62855;50.718;-2.460;2023-11-19T06:19:06;7.26;5.87;
74419;PMS5003;62855;50.718;-2.460;2023-11-19T06:22:06;9.08;6.84;
74419;PMS5003;62855;50.718;-2.460;2023-11-19T06:25:06;8.17;5.87;
74419;PMS5003;62855;50.718;-2.460;2023-11-19T06:28:05;9.08;6.84;
74419;PMS5003;62855;50.718;-2.460;2023-11-19T06:31:05;8.17;5.87;
74419;PMS5003;62855;50.718;-2.460;2023-11-19T06:34:06;9.08;6.84;
74419;PMS5003;62855;50.718;-2.460;2023-11-19T06:37:06;9.08;5.87;
74419;PMS5003;62855;50.718;-2.460;2023-11-19T06:40:06;8.17;6.84;
74419;PMS5003;62855;50.718;-2.460;2023-11-19T06:43:26;7.26;6.84;
74419;PMS5003;62855;50.718;-2.460;2023-11-19T06:46:05;9.98;7.82;
74419;PMS5003;62855;50.718;-2.460;2023-11-19T06:49:06;13.61;8.80;
74419;PMS5003;62855;50.718;-2.460;2023-11-19T06:52:06;19.06;10.76;
74419;PMS5003;62855;50.718;-2.460;2023-11-19T06:55:06;18.15;10.76;
74419;PMS5003;62855;50.718;-2.460;2023-11-19T06:58:06;18.15;9.78;
74419;PMS5003;62855;50.718;-2.460;2023-11-19T07:01:06;15.43;8.80;
74419;PMS5003;62855;50.718;-2.460;2023-11-19T07:04:06;14.52;8.80;
74419;PMS5003;62855;50.718;-2.460;2023-11-19T07:07:06;11.80;7.82;
74419;PMS5003;62855;50.718;-2.460;2023-11-19T07:10:06;11.80;7.82;
74419;PMS5003;62855;50.718;-2.460;2023-11-19T07:13:06;10.89;7.82;
74419;PMS5003;62855;50.718;-2.460;2023-11-19T07:16:07;9.08;6.84;
74419;PMS5003;62855;50.718;-2.460;2023-11-19T07:19:06;9.08;6.84;
74419;PMS5003;62855;50.718;-2.460;2023-11-19T07:22:06;8.17;6.84;
74419;PMS5003;62855;50.718;-2.460;2023-11-19T07:25:06;9.08;7.82;
74419;PMS5003;62855;50.718;-2.460;2023-11-19T07:28:06;7.26;7.82;
74419;PMS5003;62855;50.718;-2.460;2023-11-19T07:31:06;8.17;8.80;
74419;PMS5003;62855;50.718;-2.460;2023-11-19T07:34:06;8.17;7.82;
74419;PMS5003;62855;50.718;-2.460;2023-11-19T07:37:06;8.17;7.82;
74419;PMS5003;62855;50.718;-2.460;2023-11-19T07:40:06;9.08;5.87;
74419;PMS5003;62855;50.718;-2.460;2023-11-19T07:43:06;9.08;6.84;
74419;PMS5003;62855;50.718;-2.460;2023-11-19T07:46:10;8.17;5.87;
74419;PMS5003;62855;50.718;-2.460;2023-11-19T07:49:05;9.08;5.87;
74419;PMS5003;62855;50.718;-2.460;2023-11-19T07:52:05;9.08;5.87;
74419;PMS5003;62855;50.718;-2.460;2023-11-19T07:55:55;9.98;6.84;
74419;PMS5003;62855;50.718;-2.460;2023-11-19T07:58:06;9.98;6.84;
74419;PMS5003;62855;50.718;-2.460;2023-11-19T08:01:06;9.98;5.87;
74419;PMS5003;62855;50.718;-2.460;2023-11-19T08:04:06;9.98;6.84;
74419;PMS5003;62855;50.718;-2.460;2023-11-19T08:07:05;9.98;5.87;
74419;PMS5003;62855;50.718;-2.460;2023-11-19T08:10:06;8.17;6.84;
74419;PMS5003;62855;50.718;-2.460;2023-11-19T08:13:06;9.08;6.84;
74419;PMS5003;62855;50.718;-2.460;2023-11-19T08:16:06;9.98;6.84;
74419;PMS5003;62855;50.718;-2.460;2023-11-19T08:19:06;8.17;5.87;
74419;PMS5003;62855;50.718;-2.460;2023-11-19T08:22:06;9.08;6.84;
74419;PMS5003;62855;50.718;-2.460;2023-11-19T08:25:06;8.17;6.84;
74419;PMS5003;62855;50.718;-2.460;2023-11-19T08:28:06;8.17;6.84;
74419;PMS5003;62855;50.718;-2.460;2023-11-19T08:31:06;9.08;7.82;
74419;PMS5003;62855;50.718;-2.460;2023-11-19T08:34:05;9.98;7.82;
74419;PMS5003;62855;50.718;-2.460;2023-11-19T08:37:05;9.08;7.82;
74419;PMS5003;62855;50.718;-2.460;2023-11-19T08:40:06;9.98;6.84;
74419;PMS5003;62855;50.718;-2.460;2023-11-19T08:43:05;10.89;7.82;
74419;PMS5003;62855;50.718;-2.460;2023-11-19T08:46:09;10.89;8.80;
74419;PMS5003;62855;50.718;-2.460;2023-11-19T08:49:05;10.89;7.82;
74419;PMS5003;62855;50.718;-2.460;2023-11-19T08:52:05;10.89;7.82;
74419;PMS5003;62855;50.718;-2.460;2023-11-19T08:55:06;10.89;7.82;
74419;PMS5003;62855;50.718;-2.460;2023-11-19T08:58:06;12.71;8.80;
74419;PMS5003;62855;50.718;-2.460;2023-11-19T09:01:06;9.98;7.82;
74419;PMS5003;62855;50.718;-2.460;2023-11-19T09:04:06;11.80;7.82;
74419;PMS5003;62855;50.718;-2.460;2023-11-19T09:07:06;10.89;6.84;
74419;PMS5003;62855;50.718;-2.460;2023-11-19T09:10:06;9.08;6.84;
74419;PMS5003;62855;50.718;-2.460;2023-11-19T09:13:06;8.17;5.87;
74419;PMS5003;62855;50.718;-2.460;2023-11-19T09:16:06;8.17;4.89;
74419;PMS5003;62855;50.718;-2.460;2023-11-19T09:19:06;7.26;4.89;
74419;PMS5003;62855;50.718;-2.460;2023-11-19T09:22:05;9.08;5.87;
74419;PMS5003;62855;50.718;-2.460;2023-11-19T09:25:06;9.98;6.84;
74419;PMS5003;62855;50.718;-2.460;2023-11-19T09:28:06;8.17;5.87;
74419;PMS5003;62855;50.718;-2.460;2023-11-19T09:34:06;7.26;5.87;
74419;PMS5003;62855;50.718;-2.460;2023-11-19T09:37:06;7.26;5.87;
74419;PMS5003;62855;50.718;-2.460;2023-11-19T09:40:06;8.17;6.84;
74419;PMS5003;62855;50.718;-2.460;2023-11-19T09:43:05;9.08;6.84;
74419;PMS5003;62855;50.718;-2.460;2023-11-19T09:46:07;8.17;6.84;
74419;PMS5003;62855;50.718;-2.460;2023-11-19T09:49:06;8.17;6.84;
74419;PMS5003;62855;50.718;-2.460;2023-11-19T09:52:06;7.26;6.84;
74419;PMS5003;62855;50.718;-2.460;2023-11-19T09:55:06;6.35;5.87;
74419;PMS5003;62855;50.718;-2.460;2023-11-19T09:58:06;6.35;5.87;
74419;PMS5003;62855;50.718;-2.460;2023-11-19T10:01:06;7.26;5.87;
74419;PMS5003;62855;50.718;-2.460;2023-11-19T10:04:06;7.26;5.87;
74419;PMS5003;62855;50.718;-2.460;2023-11-19T10:07:05;7.26;5.87;
74419;PMS5003;62855;50.718;-2.460;2023-11-19T10:10:06;7.26;6.84;
74419;PMS5003;62855;50.718;-2.460;2023-11-19T10:13:06;8.17;5.87;
74419;PMS5003;62855;50.718;-2.460;2023-11-19T10:16:07;7.26;5.87;
74419;PMS5003;62855;50.718;-2.460;2023-11-19T10:19:05;8.17;5.87;
74419;PMS5003;62855;50.718;-2.460;2023-11-19T10:22:06;8.17;5.87;
74419;PMS5003;62855;50.718;-2.460;2023-11-19T10:25:10;7.26;5.87;
74419;PMS5003;62855;50.718;-2.460;2023-11-19T10:28:05;8.17;4.89;
74419;PMS5003;62855;50.718;-2.460;2023-11-19T10:31:06;8.17;5.87;
74419;PMS5003;62855;50.718;-2.460;2023-11-19T10:34:10;8.17;5.87;
74419;PMS5003;62855;50.718;-2.460;2023-11-19T10:37:05;8.17;5.87;
74419;PMS5003;62855;50.718;-2.460;2023-11-19T10:40:06;8.17;5.87;
74419;PMS5003;62855;50.718;-2.460;2023-11-19T10:43:05;7.26;5.87;
74419;PMS5003;62855;50.718;-2.460;2023-11-19T10:46:09;7.26;5.87;
74419;PMS5003;62855;50.718;-2.460;2023-11-19T10:49:06;8.17;6.84;
74419;PMS5003;62855;50.718;-2.460;2023-11-19T10:52:06;9.08;7.82;
74419;PMS5003;62855;50.718;-2.460;2023-11-19T10:55:06;9.08;7.82;
74419;PMS5003;62855;50.718;-2.460;2023-11-19T10:58:06;9.08;7.82;
74419;PMS5003;62855;50.718;-2.460;2023-11-19T11:01:08;9.08;8.80;
74419;PMS5003;62855;50.718;-2.460;2023-11-19T11:04:05;8.17;7.82;
74419;PMS5003;62855;50.718;-2.460;2023-11-19T11:07:06;9.08;7.82;
74419;PMS5003;62855;50.718;-2.460;2023-11-19T11:10:07;10.89;6.84;
74419;PMS5003;62855;50.718;-2.460;2023-11-19T11:13:06;10.89;6.84;
74419;PMS5003;62855;50.718;-2.460;2023-11-19T11:16:06;9.98;5.87;
74419;PMS5003;62855;50.718;-2.460;2023-11-19T11:19:06;9.08;4.89;
74419;PMS5003;62855;50.718;-2.460;2023-11-19T11:22:06;9.08;5.87;
74419;PMS5003;62855;50.718;-2.460;2023-11-19T11:25:13;9.98;5.87;
74419;PMS5003;62855;50.718;-2.460;2023-11-19T11:28:10;9.98;5.87;
74419;PMS5003;62855;50.718;-2.460;2023-11-19T11:31:12;10.89;5.87;
74419;PMS5003;62855;50.718;-2.460;2023-11-19T11:34:12;10.89;6.84;
74419;PMS5003;62855;50.718;-2.460;2023-11-19T11:37:08;10.89;6.84;
74419;PMS5003;62855;50.718;-2.460;2023-11-19T11:40:06;9.98;8.80;
74419;PMS5003;62855;50.718;-2.460;2023-11-19T11:43:09;10.89;8.80;
74419;PMS5003;62855;50.718;-2.460;2023-11-19T11:49:06;10.89;9.78;
74419;PMS5003;62855;50.718;-2.460;2023-11-19T11:52:06;10.89;9.78;
74419;PMS5003;62855;50.718;-2.460;2023-11-19T11:55:05;9.08;7.82;
74419;PMS5003;62855;50.718;-2.460;2023-11-19T11:58:05;8.17;7.82;
74419;PMS5003;62855;50.718;-2.460;2023-11-19T12:01:06;9.08;8.80;
74419;PMS5003;62855;50.718;-2.460;2023-11-19T12:04:06;9.08;8.80;
74419;PMS5003;62855;50.718;-2.460;2023-11-19T12:07:06;9.98;8.80;
74419;PMS5003;62855;50.718;-2.460;2023-11-19T12:10:06;9.08;6.84;
74419;PMS5003;62855;50.718;-2.460;2023-11-19T12:13:06;8.17;6.84;
74419;PMS5003;62855;50.718;-2.460;2023-11-19T12:16:07;9.08;7.82;
74419;PMS5003;62855;50.718;-2.460;2023-11-19T12:19:05;8.17;6.84;
74419;PMS5003;62855;50.718;-2.460;2023-11-19T12:22:09;8.17;5.87;
74419;PMS5003;62855;50.718;-2.460;2023-11-19T12:25:05;8.17;5.87;
74419;PMS5003;62855;50.718;-2.460;2023-11-19T12:28:06;8.17;5.87;
74419;PMS5003;62855;50.718;-2.460;2023-11-19T12:31:07;7.26;5.87;
74419;PMS5003;62855;50.718;-2.460;2023-11-19T12:34:07;9.08;5.87;
74419;PMS5003;62855;50.718;-2.460;2023-11-19T12:37:06;6.35;5.87;
74419;PMS5003;62855;50.718;-2.460;2023-11-19T12:40:10;6.35;5.87;
74419;PMS5003;62855;50.718;-2.460;2023-11-19T12:43:06;6.35;5.87;
74419;PMS5003;62855;50.718;-2.460;2023-11-19T12:49:05;6.35;4.89;
74419;PMS5003;62855;50.718;-2.460;2023-11-19T12:58:06;8.17;5.87;
74419;PMS5003;62855;50.718;-2.460;2023-11-19T13:01:06;9.98;7.82;
74419;PMS5003;62855;50.718;-2.460;2023-11-19T13:07:06;9.08;7.82;
74419;PMS5003;62855;50.718;-2.460;2023-11-19T13:10:06;9.08;6.84;
74419;PMS5003;62855;50.718;-2.460;2023-11-19T13:13:06;10.89;7.82;
74419;PMS5003;62855;50.718;-2.460;2023-11-19T13:16:06;9.08;7.82;
74419;PMS5003;62855;50.718;-2.460;2023-11-19T13:19:06;9.98;7.82;
74419;PMS5003;62855;50.718;-2.460;2023-11-19T13:22:06;9.08;6.84;
74419;PMS5003;62855;50.718;-2.460;2023-11-19T13:25:05;9.98;7.82;
74419;PMS5003;62855;50.718;-2.460;2023-11-19T13:28:06;8.17;6.84;
74419;PMS5003;62855;50.718;-2.460;2023-11-19T13:31:05;7.26;5.87;
74419;PMS5003;62855;50.718;-2.460;2023-11-19T13:34:06;5.45;3.91;
74419;PMS5003;62855;50.718;-2.460;2023-11-19T13:37:06;6.35;4.89;
74419;PMS5003;62855;50.718;-2.460;2023-11-19T13:40:06;5.45;3.91;
74419;PMS5003;62855;50.718;-2.460;2023-11-19T13:43:06;4.54;2.93;
74419;PMS5003;62855;50.718;-2.460;2023-11-19T13:46:05;4.54;2.93;
74419;PMS5003;62855;50.718;-2.460;2023-11-19T13:49:06;5.45;3.91;
74419;PMS5003;62855;50.718;-2.460;2023-11-19T13:52:06;6.35;5.87;
74419;PMS5003;62855;50.718;-2.460;2023-11-19T13:55:06;5.45;4.89;
74419;PMS5003;62855;50.718;-2.460;2023-11-19T13:58:06;6.35;5.87;
74419;PMS5003;62855;50.718;-2.460;2023-11-19T14:01:06;5.45;5.87;
74419;PMS5003;62855;50.718;-2.460;2023-11-19T14:04:05;7.26;6.84;
74419;PMS5003;62855;50.718;-2.460;2023-11-19T14:07:06;7.26;5.87;
74419;PMS5003;62855;50.718;-2.460;2023-11-19T14:10:07;7.26;5.87;
74419;PMS5003;62855;50.718;-2.460;2023-11-19T14:13:06;9.08;7.82;
74419;PMS5003;62855;50.718;-2.460;2023-11-19T14:16:06;9.08;7.82;
74419;PMS5003;62855;50.718;-2.460;2023-11-19T14:19:06;8.17;7.82;
74419;PMS5003;62855;50.718;-2.460;2023-11-19T14:22:06;8.17;6.84;
74419;PMS5003;62855;50.718;-2.460;2023-11-19T14:25:06;9.98;6.84;
74419;PMS5003;62855;50.718;-2.460;2023-11-19T14:28:05;9.98;6.84;
74419;PMS5003;62855;50.718;-2.460;2023-11-19T14:31:06;10.89;7.82;
74419;PMS5003;62855;50.718;-2.460;2023-11-19T14:34:06;9.08;6.84;
74419;PMS5003;62855;50.718;-2.460;2023-11-19T14:37:06;9.08;5.87;
74419;PMS5003;62855;50.718;-2.460;2023-11-19T14:40:06;9.08;5.87;
74419;PMS5003;62855;50.718;-2.460;2023-11-19T14:43:06;9.08;6.84;
74419;PMS5003;62855;50.718;-2.460;2023-11-19T14:46:16;9.08;5.87;
74419;PMS5003;62855;50.718;-2.460;2023-11-19T14:49:06;9.98;6.84;
74419;PMS5003;62855;50.718;-2.460;2023-11-19T14:52:05;7.26;4.89;
74419;PMS5003;62855;50.718;-2.460;2023-11-19T14:55:06;7.26;5.87;
74419;PMS5003;62855;50.718;-2.460;2023-11-19T14:58:06;7.26;5.87;
74419;PMS5003;62855;50.718;-2.460;2023-11-19T15:01:06;6.35;5.87;
74419;PMS5003;62855;50.718;-2.460;2023-11-19T15:04:06;6.35;5.87;
74419;PMS5003;62855;50.718;-2.460;2023-11-19T15:07:05;7.26;6.84;
74419;PMS5003;62855;50.718;-2.460;2023-11-19T15:10:06;6.35;4.89;
74419;PMS5003;62855;50.718;-2.460;2023-11-19T15:13:06;9.08;5.87;
74419;PMS5003;62855;50.718;-2.460;2023-11-19T15:16:06;9.08;6.84;
74419;PMS5003;62855;50.718;-2.460;2023-11-19T15:19:06;8.17;5.87;
74419;PMS5003;62855;50.718;-2.460;2023-11-19T15:22:06;8.17;5.87;
74419;PMS5003;62855;50.718;-2.460;2023-11-19T15:25:06;8.17;5.87;
74419;PMS5003;62855;50.718;-2.460;2023-11-19T15:28:05;9.08;6.84;
74419;PMS5003;62855;50.718;-2.460;2023-11-19T15:31:06;8.17;5.87;
74419;PMS5003;62855;50.718;-2.460;2023-11-19T15:34:06;9.98;6.84;
74419;PMS5003;62855;50.718;-2.460;2023-11-19T15:38:05;8.17;5.87;
74419;PMS5003;62855;50.718;-2.460;2023-11-19T15:41:06;8.17;5.87;
74419;PMS5003;62855;50.718;-2.460;2023-11-19T15:44:06;7.26;6.84;
74419;PMS5003;62855;50.718;-2.460;2023-11-19T15:47:06;6.35;4.89;
74419;PMS5003;62855;50.718;-2.460;2023-11-19T15:50:06;7.26;5.87;
74419;PMS5003;62855;50.718;-2.460;2023-11-19T15:53:06;6.35;5.87;
74419;PMS5003;62855;50.718;-2.460;2023-11-19T15:56:05;6.35;5.87;
74419;PMS5003;62855;50.718;-2.460;2023-11-19T15:59:06;5.45;4.89;
74419;PMS5003;62855;50.718;-2.460;2023-11-19T16:02:06;6.35;5.87;
74419;PMS5003;62855;50.718;-2.460;2023-11-19T16:05:05;5.45;4.89;
74419;PMS5003;62855;50.718;-2.460;2023-11-19T16:08:05;5.45;4.89;
74419;PMS5003;62855;50.718;-2.460;2023-11-19T16:11:06;6.35;4.89;
74419;PMS5003;62855;50.718;-2.460;2023-11-19T16:14:06;7.26;5.87;
74419;PMS5003;62855;50.718;-2.460;2023-11-19T16:17:06;6.35;3.91;
74419;PMS5003;62855;50.718;-2.460;2023-11-19T16:20:07;5.45;3.91;
74419;PMS5003;62855;50.718;-2.460;2023-11-19T16:23:06;7.26;4.89;
74419;PMS5003;62855;50.718;-2.460;2023-11-19T16:26:06;7.26;5.87;
74419;PMS5003;62855;50.718;-2.460;2023-11-19T16:29:05;9.08;4.89;
74419;PMS5003;62855;50.718;-2.460;2023-11-19T16:32:06;10.89;4.89;
74419;PMS5003;62855;50.718;-2.460;2023-11-19T16:35:06;10.89;4.89;
74419;PMS5003;62855;50.718;-2.460;2023-11-19T16:38:06;12.71;5.87;
74419;PMS5003;62855;50.718;-2.460;2023-11-19T16:41:06;9.98;4.89;
74419;PMS5003;62855;50.718;-2.460;2023-11-19T16:44:06;12.71;5.87;
74419;PMS5003;62855;50.718;-2.460;2023-11-19T16:47:06;12.71;5.87;
74419;PMS5003;62855;50.718;-2.460;2023-11-19T16:50:06;12.71;4.89;
74419;PMS5003;62855;50.718;-2.460;2023-11-19T16:53:06;11.80;4.89;
74419;PMS5003;62855;50.718;-2.460;2023-11-19T16:56:06;11.80;4.89;
74419;PMS5003;62855;50.718;-2.460;2023-11-19T16:59:06;9.98;5.87;
74419;PMS5003;62855;50.718;-2.460;2023-11-19T17:02:06;9.08;6.84;
74419;PMS5003;62855;50.718;-2.460;2023-11-19T17:05:06;9.08;6.84;
74419;PMS5003;62855;50.718;-2.460;2023-11-19T17:08:05;8.17;5.87;
74419;PMS5003;62855;50.718;-2.460;2023-11-19T17:11:06;8.17;6.84;
74419;PMS5003;62855;50.718;-2.460;2023-11-19T17:14:05;5.45;5.87;
74419;PMS5003;62855;50.718;-2.460;2023-11-19T17:17:06;9.98;5.87;
74419;PMS5003;62855;50.718;-2.460;2023-11-19T17:20:06;10.89;6.84;
74419;PMS5003;62855;50.718;-2.460;2023-11-19T17:23:05;9.98;5.87;
74419;PMS5003;62855;50.718;-2.460;2023-11-19T17:26:06;9.98;5.87;
74419;PMS5003;62855;50.718;-2.460;2023-11-19T17:29:06;9.98;5.87;
74419;PMS5003;62855;50.718;-2.460;2023-11-19T17:32:06;9.98;5.87;
74419;PMS5003;62855;50.718;-2.460;2023-11-19T17:35:06;10.89;5.87;
74419;PMS5003;62855;50.718;-2.460;2023-11-19T17:38:05;10.89;5.87;
74419;PMS5003;62855;50.718;-2.460;2023-11-19T17:41:06;10.89;4.89;
74419;PMS5003;62855;50.718;-2.460;2023-11-19T17:44:06;11.80;5.87;
74419;PMS5003;62855;50.718;-2.460;2023-11-19T17:47:05;8.17;5.87;
74419;PMS5003;62855;50.718;-2.460;2023-11-19T17:50:06;7.26;4.89;
74419;PMS5003;62855;50.718;-2.460;2023-11-19T17:53:06;7.26;4.89;
74419;PMS5003;62855;50.718;-2.460;2023-11-19T17:56:05;7.26;4.89;
74419;PMS5003;62855;50.718;-2.460;2023-11-19T17:59:06;7.26;4.89;
74419;PMS5003;62855;50.718;-2.460;2023-11-19T18:02:06;7.26;4.89;
74419;PMS5003;62855;50.718;-2.460;2023-11-19T18:05:07;6.35;4.89;
74419;PMS5003;62855;50.718;-2.460;2023-11-19T18:08:05;8.17;6.84;
74419;PMS5003;62855;50.718;-2.460;2023-11-19T18:11:06;7.26;6.84;
74419;PMS5003;62855;50.718;-2.460;2023-11-19T18:14:06;9.08;6.84;
74419;PMS5003;62855;50.718;-2.460;2023-11-19T18:17:06;10.89;6.84;
74419;PMS5003;62855;50.718;-2.460;2023-11-19T18:20:06;13.61;5.87;
74419;PMS5003;62855;50.718;-2.460;2023-11-19T18:23:05;13.61;5.87;
74419;PMS5003;62855;50.718;-2.460;2023-11-19T18:26:06;13.61;5.87;
74419;PMS5003;62855;50.718;-2.460;2023-11-19T18:29:06;12.71;5.87;
74419;PMS5003;62855;50.718;-2.460;2023-11-19T18:32:05;10.89;4.89;
74419;PMS5003;62855;50.718;-2.460;2023-11-19T18:35:06;11.80;5.87;
74419;PMS5003;62855;50.718;-2.460;2023-11-19T18:38:05;10.89;7.82;
74419;PMS5003;62855;50.718;-2.460;2023-11-19T18:41:06;9.98;6.84;
74419;PMS5003;62855;50.718;-2.460;2023-11-19T18:44:06;7.26;5.87;